Necton, United Kingdom
Current Conditions -  °F | °C
As of 8:50 AM on Tuesday 21 Oct 2014 (Local Time) from EGYM Reporting Station
Scattered Clouds Scattered Clouds  
Wind Chill: 57°   Ceiling: Unl
Heat Index: 57°   Visibility: 6mi
Dew Point: 52°   Wind: 24mph
Humidity: 82%   Direction: 230°SW
Pressure: 29.41"   Gusts: 36mph
Location:  52.65°N, 0.78°E
Report Text: EGYM 210750Z AUTO 23021G31KT 9999 FEW017/// SCT038/// 14/11 Q0996
Loading
Personal Weather Stations






























Interactive Weather Map
Tropical Storm Tracking
New forecast layout! Learn more

10-Day Weather Forecast

Advertisements
Track Severe Weather on mobile